Miami, FL

09:14 AM EST em 19 de Fevereiro de 2017 (GMT -0500)
U of Miami Health System WeatherSTEM | | Change Station

Elev 68 ft 25.79 °N, 80.22 °W | Updated 1 minute ago

Céu Limpo
Céu Limpo
78.9 °F
Aparente 82 °F
N
2.0
Vento Variável Vento de SE

Hoje
Máxima -- | Mínima -- °F
--% Possibilidade de Precip.
Ontem
Máxima -- | Mínima -- °F
Precip. -- pol
Pressão 30.07 pol
Visibilidade 6.0 milhas
Nuvens Poucas 3000 ft
Poucas 25000 ft
Índice de Calor 82 °F
Ponto de Orvalho 73 °F
Humidade 83%
Chuva 0.00 pol
Altura de Neve Não disponível
6:52 AM 6:16 PM
Quarto minguante, 43% visible
METAR KMIA 191353Z 22008KT 6SM BR FEW030 FEW250 23/23 A3007 RMK AO2 SLP183 T02330228
Pressão 30.07 pol
Visibilidade 6.0 milhas
Nuvens Poucas 3000 ft
Poucas 25000 ft
Índice de Calor 82 °F
Ponto de Orvalho 73 °F
Humidade 83%
Chuva 0.00 pol
Altura de Neve Não disponível
6:52 AM 6:16 PM
Quarto minguante, 43% visible
METAR KMIA 191353Z 22008KT 6SM BR FEW030 FEW250 23/23 A3007 RMK AO2 SLP183 T02330228

Get Your Daily Forecast Email!

Thanks for signing up!

Be on the lookout for a verification email in your inbox.

You'll start receiving the daily forecast at 8 AM.

×

10-Day Weather Forecast

Almanac

Astronomia

Feb. 19, 2017 Nascer Pôr
Hora atual
Crepúsculo civil
Crepúsculo náutico
Crepúsculo astronómico
Lua
Comprimento da luz visível
Duração do Dia
Tomorrow will be .
, % of the Moon is Illuminated

Extremos de Hoje

situação na parte mais alta situação na parte mais baixa

Community

WunderPhotos

Upload Photos

1,962,540 fotografias inseridas!

WunderBlog® & News

Nearby

Qualidade do Ar

  Qualidade do Ar Índice da Q.A. Poluente
Not available.

Altura da Neve

Estação altura Altitude

Actividade Sísmisca

Cidade Distância Mag. Hora & Data
Mínima magnitude apresentada é 2.5.

Temperaturas das Águas Costeiras

Local Temperatura

Stations

Estações Meteorológicas Próximas

Localização da Estação Temp. Sensação Térmica Ponto de Orvalho Humidade Vento Precip. Elev Actualizado Tipo
                   

Watches & Warnings

There are currently no watches in effect.